A- A+ FrançaisEnglishEspañol中国

le plus proche LFBT Tarbes-Lourdes-PyrénéesLFOB Beauvais-TilleLFBD Bordeaux-MerignacLFRI La-Roche-Sur-Yon-Les-Ajones

manche à air

La météo aéronautique pour les pilotes, la préparation du vol avec les METAR (METeorological Aerodrome Report, message d'observation des conditions météorologiques pour l'aviation) et Les TAF (Terminal Aerodrome Forecast : message de prévision à court terme des conditions météorologiques pour l'aviation). Et les autres ressources comme les VAC (Visual Approch Chart) et les NOTAM (Notice To Airman) pour préprer les vols.

Aéroport Portage La Prairie Southport (Canada) / OACI CYPG/ IATA YPG

L'altitude de l'aéroport Portage La Prairie Southport est de 270 m=886 ft. Il est situé à proximité de Portage la Prairie (Canada). La météo générale à 5 jours est disponible pour Portage la Prairie situé à 7.9 km.

METAR de l'aéroport Portage La Prairie Southport - CYPG

CYPG 031700Z 33011G20KT 15SM OVC014 12/10 A2993 RMK SF8 SLP140

Décodage du METAR de l'aéroport Portage La Prairie Southport (CA)

METAR émis par CYPG le mardi 3 septembre 2019 à 17:00 heure TU. Attention ce METAR est obsolète car il a été émis il y a 10 heure et 49 minutes.

La visibilité est de 24.1 km=15 sm.

La température est de 12°C=54 °F et le point rosée est de 10°C=50 °F . Ce qui correspond à 88% d'humidité relative.

Le QNH est de 1014 hPa=29.94 inHg

Vent de 11 kt=20 km/h avec des rafales à 20 kt =37 km/h, orienté à 330°.

Nuages : Couverture nuageuse soudée à 1400 ft=430 mètres.

RMK SF8 SLP140

TAF de l'aéroport Portage La Prairie Southport - CYPG

CYPG 031610Z 0316/0324 30012G22KT 3SM -DZ BR BKN005 OVC030 TEMPO 0316/0319 P6SM NSW SCT005 OVC030 FM031900 34010G20KT P6SM BKN030 BECMG 0322/0324 31008KT RMK NXT FCST BY 031800Z

CYPG 031610Z 0316/0324 30012G22KT 3SM faible DZ brume couverture nuageuse fragmentée à 005 couverture nuageuse soudée à 030 temporairement 0316/0319 P6SM NSW nuages épars à 005 couverture nuageuse soudée à 030 FM031900 34010G20KT P6SM couverture nuageuse fragmentée à 030 devenant 0322/0324 31008KT remarques NXT trombe ST BY 031800Z

Aéroport à proximité de Portage La Prairie Southport

Météo générale à 5 jours à Portage la Prairie (7.9 km)CYWG Aéroport Winnipeg (74 km)CYAV Aéroport Winnipeg St Andrews (90 km)CYGM Aéroport Gimli Indus Park (119 km)CYBR Aéroport Brandon (120 km)KPMB Aéroport Pembina Mun (130 km)KHCO Aéroport Hallock Mun (160 km)

Vue aérienne de l'aéroport Portage La Prairie Southport

NOTAM de l'aéroport Portage La Prairie Southport

Les NOTAM sont fournis sans aucune garantie de leur actualité. Le pilote est le seul responsable de la vérification de sa validité avant de l'utiliser opérationnellement pour préparer un vol ou l'utiliser lors de sa navigation.

Pas de NOTAM

Sources des données